createdAt,value
2022-11-29T00:01:37.061Z,17.73
2022-11-29T00:03:41.516Z,17.93
2022-11-29T00:05:44.487Z,17.17
2022-11-29T00:07:47.680Z,18.27
2022-11-29T00:09:50.723Z,19.70
2022-11-29T00:12:10.978Z,17.87
2022-11-29T00:14:16.213Z,17.53
2022-11-29T00:16:19.333Z,18.90
2022-11-29T00:18:22.519Z,18.70
2022-11-29T00:20:26.773Z,18.10
2022-11-29T00:22:30.294Z,18.93
2022-11-29T00:24:33.791Z,18.67
2022-11-29T00:26:37.063Z,20.53
2022-11-29T00:28:40.047Z,20.40
2022-11-29T00:30:42.977Z,17.80
2022-11-29T00:32:46.208Z,19.17
2022-11-29T00:34:49.838Z,18.70
2022-11-29T00:36:54.061Z,20.00
2022-11-29T00:38:57.192Z,19.80
2022-11-29T00:41:00.112Z,18.80
2022-11-29T00:43:03.236Z,18.33
2022-11-29T00:45:07.101Z,20.17
2022-11-29T00:47:10.320Z,18.70
2022-11-29T00:49:13.272Z,19.20
2022-11-29T00:51:16.527Z,18.50
2022-11-29T00:53:20.972Z,17.73
2022-11-29T00:55:24.228Z,21.23
2022-11-29T00:57:27.072Z,18.47
2022-11-29T00:59:30.571Z,19.73
2022-11-29T01:01:33.561Z,17.90
2022-11-29T01:03:37.542Z,18.47
2022-11-29T01:05:41.388Z,17.80
2022-11-29T01:07:44.864Z,18.13
2022-11-29T01:09:49.218Z,18.37
2022-11-29T01:11:52.138Z,19.20
2022-11-29T01:13:56.736Z,18.23
2022-11-29T01:15:59.840Z,18.20
2022-11-29T01:18:03.766Z,17.07
2022-11-29T01:20:10.914Z,19.33
2022-11-29T01:22:14.408Z,17.20
2022-11-29T01:24:17.319Z,17.80
2022-11-29T01:26:25.577Z,18.60
2022-11-29T01:28:29.129Z,17.83
2022-11-29T01:30:33.720Z,17.57
2022-11-29T01:32:36.878Z,17.10
2022-11-29T01:34:40.289Z,16.23
2022-11-29T01:36:43.250Z,18.50
2022-11-29T01:38:46.318Z,18.57
2022-11-29T01:40:59.220Z,18.50
2022-11-29T01:43:03.739Z,17.30
2022-11-29T01:45:22.379Z,19.00
2022-11-29T01:47:25.858Z,19.27
2022-11-29T01:49:31.154Z,16.70
2022-11-29T01:51:36.718Z,15.70
2022-11-29T01:53:39.954Z,17.13
2022-11-29T01:55:48.221Z,17.70
2022-11-29T01:57:51.392Z,16.57
2022-11-29T01:59:59.556Z,16.33
2022-11-29T02:02:07.606Z,14.53
2022-11-29T02:04:10.759Z,12.87
2022-11-29T02:06:14.556Z,11.03
2022-11-29T02:08:21.353Z,10.47
2022-11-29T02:10:34.694Z,11.40
2022-11-29T02:12:45.077Z,11.60
2022-11-29T02:15:09.950Z,12.37
2022-11-29T02:17:20.230Z,12.50
2022-11-29T02:19:53.336Z,12.20
2022-11-29T02:21:58.733Z,14.73
2022-11-29T02:24:29.671Z,15.00
2022-11-29T02:26:50.467Z,15.03
2022-11-29T02:29:17.055Z,15.67
2022-11-29T02:31:53.678Z,16.70
2022-11-29T02:34:21.318Z,14.60
2022-11-29T02:36:46.807Z,15.93
2022-11-29T02:39:17.183Z,14.70
2022-11-29T02:41:32.490Z,15.50
2022-11-29T02:44:16.575Z,16.33
2022-11-29T02:46:34.726Z,14.00
2022-11-29T02:48:52.429Z,14.70
2022-11-29T02:51:13.713Z,15.13
2022-11-29T02:53:21.452Z,14.77
2022-11-29T02:55:30.663Z,14.57
2022-11-29T02:57:40.254Z,14.60
2022-11-29T02:59:49.748Z,15.40
2022-11-29T03:01:59.285Z,14.20
2022-11-29T03:04:07.642Z,14.60
2022-11-29T03:06:21.178Z,14.30
2022-11-29T03:08:27.935Z,13.60
2022-11-29T03:10:36.162Z,13.73
2022-11-29T03:12:41.535Z,13.83
2022-11-29T03:14:53.740Z,14.23
2022-11-29T03:17:04.164Z,13.20
2022-11-29T03:19:19.613Z,13.00
2022-11-29T03:21:31.337Z,11.33
2022-11-29T03:23:38.191Z,12.77
2022-11-29T03:25:44.232Z,13.07
2022-11-29T03:27:50.047Z,12.00
2022-11-29T03:29:57.837Z,13.67
2022-11-29T03:32:03.595Z,13.63
2022-11-29T03:34:12.004Z,12.20
2022-11-29T03:36:23.579Z,12.70
2022-11-29T03:38:31.116Z,14.47
2022-11-29T03:40:41.605Z,14.50
2022-11-29T03:42:49.355Z,14.77
2022-11-29T03:44:57.443Z,14.50
2022-11-29T03:47:05.172Z,15.90
2022-11-29T03:49:12.847Z,15.83
2022-11-29T03:51:19.243Z,17.53
2022-11-29T03:53:28.489Z,16.80
2022-11-29T03:55:45.202Z,17.77
2022-11-29T03:57:56.156Z,19.97
2022-11-29T04:00:05.646Z,18.50
2022-11-29T04:02:55.556Z,18.10
2022-11-29T04:05:17.321Z,16.10
2022-11-29T04:07:36.237Z,17.53
2022-11-29T04:09:47.777Z,21.50
2022-11-29T04:12:22.638Z,19.93
2022-11-29T04:14:57.877Z,20.93
2022-11-29T04:17:33.469Z,18.77
2022-11-29T04:20:19.174Z,18.10
2022-11-29T04:22:33.668Z,19.57
2022-11-29T04:25:17.210Z,18.33
2022-11-29T04:27:31.736Z,16.07
2022-11-29T04:30:16.196Z,17.80
2022-11-29T04:32:47.242Z,17.33
2022-11-29T04:35:07.139Z,17.73
2022-11-29T04:37:36.635Z,16.90
2022-11-29T04:40:04.166Z,18.87
2022-11-29T04:42:30.233Z,17.10
2022-11-29T04:44:46.917Z,17.63
2022-11-29T04:47:12.242Z,18.17
2022-11-29T04:49:31.388Z,20.23
2022-11-29T04:51:49.128Z,20.70
2022-11-29T04:53:58.305Z,19.70
2022-11-29T04:56:17.116Z,19.93
2022-11-29T04:58:25.577Z,18.77
2022-11-29T05:00:31.386Z,18.83
2022-11-29T05:02:38.352Z,17.07
2022-11-29T05:04:50.117Z,15.87
2022-11-29T05:07:11.982Z,17.80
2022-11-29T05:09:24.546Z,16.70
2022-11-29T05:11:36.868Z,16.30
2022-11-29T05:13:51.104Z,17.27
2022-11-29T05:16:07.986Z,15.77
2022-11-29T05:18:19.770Z,16.47
2022-11-29T05:20:30.444Z,16.50
2022-11-29T05:22:36.724Z,16.23
2022-11-29T05:24:51.643Z,16.97
2022-11-29T05:27:01.001Z,18.30
2022-11-29T05:29:07.715Z,18.23
2022-11-29T05:31:22.836Z,17.73
2022-11-29T05:33:37.761Z,17.37
2022-11-29T05:35:52.890Z,17.43
2022-11-29T05:37:58.616Z,17.70
2022-11-29T05:40:25.015Z,17.30
2022-11-29T05:42:45.878Z,16.60
2022-11-29T05:44:54.068Z,17.60
2022-11-29T05:46:58.764Z,15.43
2022-11-29T05:49:11.923Z,17.03
2022-11-29T05:51:22.062Z,18.60
2022-11-29T05:53:29.582Z,17.77
2022-11-29T05:55:41.652Z,18.00
2022-11-29T05:57:49.177Z,18.90
2022-11-29T05:59:55.140Z,17.73
2022-11-29T06:02:05.412Z,18.00
2022-11-29T06:04:15.159Z,16.47
2022-11-29T06:06:24.309Z,18.57
2022-11-29T06:08:36.103Z,19.13
2022-11-29T06:10:41.030Z,18.60
2022-11-29T06:12:46.863Z,18.60
2022-11-29T06:15:13.664Z,18.90
2022-11-29T06:17:39.039Z,22.00
2022-11-29T06:20:04.225Z,26.30
2022-11-29T06:22:21.392Z,24.70
2022-11-29T06:24:39.097Z,26.87
2022-11-29T06:26:59.647Z,28.73
2022-11-29T06:29:22.725Z,31.77
2022-11-29T06:31:30.416Z,33.07
2022-11-29T06:33:39.726Z,32.53
2022-11-29T06:35:47.090Z,32.53
2022-11-29T06:37:52.393Z,31.97
2022-11-29T06:39:56.854Z,29.80
2022-11-29T06:41:59.841Z,29.20
2022-11-29T06:44:03.555Z,28.30
2022-11-29T06:46:12.008Z,26.90
2022-11-29T06:48:21.448Z,26.13
2022-11-29T06:50:34.976Z,26.90
2022-11-29T06:52:44.703Z,27.90
2022-11-29T06:54:56.585Z,25.60
2022-11-29T06:57:06.866Z,23.40
2022-11-29T06:59:15.397Z,24.10
2022-11-29T07:01:25.545Z,25.40
2022-11-29T07:03:44.296Z,21.17
2022-11-29T07:05:47.742Z,20.03
2022-11-29T07:07:51.638Z,22.43
2022-11-29T07:09:57.331Z,21.10
2022-11-29T07:12:01.003Z,19.93
2022-11-29T07:14:04.638Z,20.60
2022-11-29T07:16:15.453Z,20.57
2022-11-29T07:18:24.253Z,19.83
2022-11-29T07:20:37.639Z,20.40
2022-11-29T07:22:53.587Z,22.17
2022-11-29T07:25:01.113Z,24.50
2022-11-29T07:27:09.924Z,28.10
2022-11-29T07:29:22.243Z,26.80
2022-11-29T07:31:33.073Z,27.63
2022-11-29T07:33:45.017Z,27.10
2022-11-29T07:35:54.308Z,29.10
2022-11-29T07:38:04.063Z,27.90
2022-11-29T07:40:14.407Z,28.20
2022-11-29T07:42:20.697Z,27.90
2022-11-29T07:44:27.813Z,28.70
2022-11-29T07:46:32.124Z,26.77
2022-11-29T07:48:35.261Z,24.77
2022-11-29T07:50:38.425Z,26.77
2022-11-29T07:52:42.888Z,22.13
2022-11-29T07:54:46.350Z,22.17
2022-11-29T07:56:50.701Z,22.70
2022-11-29T07:58:54.389Z,23.33
2022-11-29T08:00:57.624Z,21.70
2022-11-29T08:03:00.564Z,22.03
2022-11-29T08:05:04.150Z,19.97
2022-11-29T08:07:07.036Z,19.47
2022-11-29T08:09:11.468Z,18.10
2022-11-29T08:11:15.861Z,17.13
2022-11-29T08:13:20.561Z,17.30
2022-11-29T08:15:25.138Z,16.67
2022-11-29T08:17:28.079Z,19.07
2022-11-29T08:19:31.116Z,17.77
2022-11-29T08:21:33.964Z,19.37
2022-11-29T08:23:36.813Z,18.30
2022-11-29T08:25:45.673Z,17.87
2022-11-29T08:27:48.788Z,17.17
2022-11-29T08:29:52.035Z,19.53
2022-11-29T08:31:55.416Z,17.77
2022-11-29T08:34:00.582Z,16.97
2022-11-29T08:36:06.741Z,17.37
2022-11-29T08:38:09.883Z,16.60
2022-11-29T08:40:13.695Z,16.93
2022-11-29T08:42:18.009Z,16.67
2022-11-29T08:44:21.039Z,16.60
2022-11-29T08:46:44.349Z,16.37
2022-11-29T08:48:47.231Z,17.00
2022-11-29T08:50:50.769Z,15.57
2022-11-29T08:53:11.031Z,17.37
2022-11-29T08:55:14.109Z,16.60
2022-11-29T08:57:39.313Z,17.10
2022-11-29T08:59:44.941Z,14.63
2022-11-29T09:01:47.905Z,14.37
2022-11-29T09:04:07.716Z,13.63
2022-11-29T09:06:13.021Z,13.67
2022-11-29T09:08:16.383Z,14.47
2022-11-29T09:10:19.369Z,13.70
2022-11-29T09:12:24.369Z,14.90
2022-11-29T09:14:27.442Z,15.43
2022-11-29T09:16:34.338Z,14.13
2022-11-29T09:18:38.428Z,15.47
2022-11-29T09:20:44.077Z,12.57
2022-11-29T09:22:47.031Z,14.40
2022-11-29T09:24:50.159Z,13.43
2022-11-29T09:26:53.501Z,11.50
2022-11-29T09:29:01.346Z,13.50
2022-11-29T09:31:07.756Z,12.63
2022-11-29T09:33:10.805Z,12.80
2022-11-29T09:35:13.818Z,13.73
2022-11-29T09:37:16.887Z,13.00
2022-11-29T09:39:20.293Z,14.63
2022-11-29T09:41:36.083Z,12.93
2022-11-29T09:43:48.579Z,12.13
2022-11-29T09:45:58.412Z,14.13
2022-11-29T09:48:27.857Z,12.70
2022-11-29T09:50:35.428Z,12.77
2022-11-29T09:52:45.014Z,12.50
2022-11-29T09:54:53.279Z,13.60
2022-11-29T09:56:57.388Z,10.70
2022-11-29T09:59:02.031Z,13.10
2022-11-29T10:01:10.117Z,12.03
2022-11-29T10:03:16.328Z,12.40
2022-11-29T10:05:23.233Z,12.47
2022-11-29T10:07:29.507Z,11.60
2022-11-29T10:09:34.939Z,12.00
2022-11-29T10:11:41.253Z,12.57
2022-11-29T10:13:47.014Z,11.30
2022-11-29T10:15:53.014Z,12.37
2022-11-29T10:18:02.518Z,14.10
2022-11-29T10:20:12.569Z,11.60
2022-11-29T10:22:19.523Z,11.80
2022-11-29T10:24:24.226Z,13.30
2022-11-29T10:26:31.996Z,12.67
2022-11-29T10:28:39.033Z,12.93
2022-11-29T10:30:42.982Z,13.97
2022-11-29T10:32:48.882Z,13.30
2022-11-29T10:34:53.451Z,13.63
2022-11-29T10:37:00.047Z,12.80
2022-11-29T10:39:11.421Z,11.93
2022-11-29T10:41:20.372Z,11.70
2022-11-29T10:43:23.735Z,12.60
2022-11-29T10:45:29.939Z,13.20
2022-11-29T10:47:33.122Z,13.50
2022-11-29T10:49:40.221Z,11.20
2022-11-29T10:51:45.164Z,12.50
2022-11-29T10:53:48.055Z,13.20
2022-11-29T10:55:54.724Z,12.50
2022-11-29T10:58:15.964Z,12.40
2022-11-29T11:00:19.525Z,12.43
2022-11-29T11:02:24.890Z,11.43
2022-11-29T11:04:30.517Z,10.97
2022-11-29T11:06:46.343Z,12.30
2022-11-29T11:08:51.766Z,11.70
2022-11-29T11:11:01.155Z,10.77
2022-11-29T11:13:07.040Z,11.90
2022-11-29T11:15:28.605Z,11.57
2022-11-29T11:17:32.986Z,10.70
2022-11-29T11:19:36.134Z,13.03
2022-11-29T11:21:39.786Z,13.40
2022-11-29T11:23:53.862Z,12.10
2022-11-29T11:25:58.490Z,11.57
2022-11-29T11:28:15.384Z,12.23
2022-11-29T11:30:21.818Z,14.27
2022-11-29T11:32:24.853Z,14.53
2022-11-29T11:34:34.115Z,14.10
2022-11-29T11:36:37.494Z,15.60
2022-11-29T11:38:42.018Z,16.60
2022-11-29T11:40:46.459Z,16.90
2022-11-29T11:42:49.413Z,18.40
2022-11-29T11:44:53.629Z,19.10
2022-11-29T11:46:57.038Z,19.20
2022-11-29T11:49:00.457Z,20.87
2022-11-29T11:51:03.292Z,19.33
2022-11-29T11:53:08.136Z,19.50
2022-11-29T11:55:26.624Z,19.50
2022-11-29T11:57:31.417Z,21.87
2022-11-29T11:59:34.411Z,24.57
2022-11-29T12:01:38.770Z,22.23
2022-11-29T12:03:54.246Z,23.23
2022-11-29T12:06:00.385Z,21.47
2022-11-29T12:08:08.506Z,21.30
2022-11-29T12:10:17.337Z,24.70
2022-11-29T12:12:24.031Z,19.83
2022-11-29T12:14:34.415Z,21.40
2022-11-29T12:16:39.759Z,22.33
2022-11-29T12:18:45.521Z,20.77
2022-11-29T12:20:53.962Z,21.00
2022-11-29T12:23:06.639Z,20.40
2022-11-29T12:25:16.561Z,18.77
2022-11-29T12:27:19.985Z,19.77
2022-11-29T12:29:33.299Z,21.17
2022-11-29T12:31:44.761Z,21.20
2022-11-29T12:33:56.242Z,20.33
2022-11-29T12:36:15.542Z,20.60
2022-11-29T12:38:29.976Z,20.37
2022-11-29T12:40:36.391Z,19.37
2022-11-29T12:42:49.133Z,18.57
2022-11-29T12:44:58.213Z,18.00
2022-11-29T12:49:40.796Z,18.13
2022-11-29T12:51:49.676Z,17.90
2022-11-29T12:54:05.583Z,17.23
2022-11-29T12:56:16.629Z,17.70
2022-11-29T12:58:24.810Z,18.53
2022-11-29T13:00:34.180Z,17.70
2022-11-29T13:02:57.991Z,19.00
2022-11-29T13:05:05.042Z,17.30
2022-11-29T13:07:12.820Z,17.63
2022-11-29T13:09:25.618Z,18.80
2022-11-29T13:11:30.835Z,17.50
2022-11-29T13:13:39.327Z,18.73
2022-11-29T13:15:49.807Z,19.20
2022-11-29T13:17:57.364Z,19.87
2022-11-29T13:20:05.973Z,19.33
2022-11-29T13:22:15.164Z,19.27
2022-11-29T13:24:24.547Z,17.40
2022-11-29T13:26:28.365Z,19.37
2022-11-29T13:28:33.763Z,18.17
2022-11-29T13:30:37.628Z,19.70
2022-11-29T13:32:51.421Z,19.27
2022-11-29T13:34:55.999Z,20.77
2022-11-29T13:37:06.272Z,22.00
2022-11-29T13:39:17.463Z,21.70
2022-11-29T13:41:27.033Z,21.90
2022-11-29T13:43:35.261Z,18.80
2022-11-29T13:45:42.486Z,21.37
2022-11-29T13:47:51.121Z,22.63
2022-11-29T13:49:57.637Z,22.30
2022-11-29T13:52:06.677Z,23.03
2022-11-29T13:54:28.345Z,23.67
2022-11-29T13:56:36.701Z,23.10
2022-11-29T13:58:40.822Z,21.73
2022-11-29T14:00:50.677Z,23.47
2022-11-29T14:02:55.619Z,23.47
2022-11-29T14:04:59.277Z,22.80
2022-11-29T14:07:08.580Z,24.10
2022-11-29T14:09:36.408Z,25.90
2022-11-29T14:11:47.660Z,25.83
2022-11-29T14:13:55.312Z,26.80
2022-11-29T14:16:00.484Z,25.83
2022-11-29T14:18:08.667Z,25.50
2022-11-29T14:20:51.220Z,26.07
2022-11-29T14:23:16.637Z,25.50
2022-11-29T14:25:50.539Z,22.90
2022-11-29T14:28:03.203Z,21.33
2022-11-29T14:30:33.789Z,22.27
2022-11-29T14:32:45.975Z,22.23
2022-11-29T14:34:55.184Z,21.00
2022-11-29T14:37:03.739Z,21.80
2022-11-29T14:39:22.000Z,21.20
2022-11-29T14:41:31.578Z,22.37
2022-11-29T14:43:36.401Z,23.03
2022-11-29T14:45:39.625Z,22.63
2022-11-29T14:47:49.654Z,23.03
2022-11-29T14:49:55.694Z,21.80
2022-11-29T14:52:10.856Z,22.83
2022-11-29T14:54:18.205Z,21.43
2022-11-29T14:56:43.426Z,21.07
2022-11-29T14:58:46.406Z,21.90
2022-11-29T15:00:56.864Z,21.57
2022-11-29T15:03:05.416Z,21.67
2022-11-29T15:05:17.830Z,21.93
2022-11-29T15:07:28.813Z,24.53
2022-11-29T15:09:34.967Z,23.13
2022-11-29T15:11:47.869Z,23.80
2022-11-29T15:13:57.283Z,20.00
2022-11-29T15:16:15.170Z,22.47
2022-11-29T15:18:28.006Z,22.33
2022-11-29T15:20:55.158Z,23.77
2022-11-29T15:23:01.129Z,26.27
2022-11-29T15:25:08.337Z,22.80
2022-11-29T15:27:14.035Z,23.30
2022-11-29T15:29:19.577Z,26.37
2022-11-29T15:31:23.086Z,24.67
2022-11-29T15:33:27.005Z,28.47
2022-11-29T15:35:30.094Z,27.33
2022-11-29T15:37:44.934Z,26.40
2022-11-29T15:39:48.179Z,24.90
2022-11-29T15:41:51.405Z,26.90
2022-11-29T15:43:57.183Z,25.63
2022-11-29T15:46:01.186Z,25.27
2022-11-29T15:48:15.163Z,28.30
2022-11-29T15:50:27.104Z,25.53
2022-11-29T15:52:33.820Z,26.03
2022-11-29T15:54:40.878Z,26.87
2022-11-29T15:56:46.869Z,23.97
2022-11-29T15:58:53.656Z,25.80
2022-11-29T16:00:57.164Z,27.73
2022-11-29T16:03:01.956Z,26.87
2022-11-29T16:05:09.689Z,24.80
2022-11-29T16:07:13.676Z,25.73
2022-11-29T16:09:20.373Z,23.13
2022-11-29T16:11:28.681Z,25.57
2022-11-29T16:13:38.472Z,24.07
2022-11-29T16:15:41.723Z,23.40
2022-11-29T16:17:44.605Z,22.30
2022-11-29T16:19:47.843Z,25.53
2022-11-29T16:22:03.207Z,24.37
2022-11-29T16:24:14.624Z,24.77
2022-11-29T16:26:20.083Z,25.50
2022-11-29T16:28:25.376Z,25.30
2022-11-29T16:30:31.248Z,23.50
2022-11-29T16:32:35.860Z,24.97
2022-11-29T16:34:42.980Z,23.60
2022-11-29T16:36:58.088Z,25.17
2022-11-29T16:39:06.678Z,23.33
2022-11-29T16:41:22.421Z,23.67
2022-11-29T16:43:48.549Z,24.67
2022-11-29T16:46:26.985Z,24.10
2022-11-29T16:48:31.395Z,23.80
2022-11-29T16:50:34.978Z,25.27
2022-11-29T16:52:37.951Z,24.67
2022-11-29T16:54:42.342Z,21.70
2022-11-29T16:56:45.305Z,22.80
2022-11-29T16:59:25.276Z,24.17
2022-11-29T17:01:18.615Z,23.10
2022-11-29T17:03:22.495Z,22.97
2022-11-29T17:05:25.519Z,22.40
2022-11-29T17:07:31.059Z,23.03
2022-11-29T17:09:34.417Z,22.53
2022-11-29T17:11:37.484Z,22.97
2022-11-29T17:13:40.686Z,23.00
2022-11-29T17:15:45.299Z,22.50
2022-11-29T17:17:48.338Z,22.00
2022-11-29T17:19:51.247Z,21.90
2022-11-29T17:21:54.156Z,22.40
2022-11-29T17:23:57.933Z,19.87
2022-11-29T17:26:01.855Z,22.20
2022-11-29T17:28:04.990Z,21.60
2022-11-29T17:30:11.292Z,22.20
2022-11-29T17:32:15.902Z,21.67
2022-11-29T17:34:19.368Z,21.50
2022-11-29T17:36:22.640Z,22.87
2022-11-29T17:38:25.642Z,20.70
2022-11-29T17:40:28.552Z,20.43
2022-11-29T17:42:32.522Z,21.13
2022-11-29T17:44:35.795Z,19.60
2022-11-29T17:46:39.096Z,19.13
2022-11-29T17:48:46.293Z,18.30
2022-11-29T17:50:49.216Z,18.43
2022-11-29T17:52:52.139Z,19.80
2022-11-29T17:54:55.331Z,20.43
2022-11-29T17:56:58.347Z,21.07
2022-11-29T17:59:04.864Z,19.90
2022-11-29T18:01:09.399Z,18.73
2022-11-29T18:03:12.744Z,20.00
2022-11-29T18:05:18.064Z,20.13
2022-11-29T18:07:20.983Z,20.03
2022-11-29T18:09:24.214Z,19.03
2022-11-29T18:11:28.694Z,19.27
2022-11-29T18:13:31.685Z,18.97
2022-11-29T18:15:34.626Z,19.47
2022-11-29T18:17:37.549Z,20.47
2022-11-29T18:19:40.458Z,20.50
2022-11-29T18:21:45.064Z,18.80
2022-11-29T18:23:48.154Z,17.83
2022-11-29T18:25:57.459Z,18.60
2022-11-29T18:28:00.519Z,19.13
2022-11-29T18:30:03.478Z,18.97
2022-11-29T18:32:06.418Z,19.37
2022-11-29T18:34:10.865Z,20.00
2022-11-29T18:36:15.575Z,18.27
2022-11-29T18:38:19.824Z,20.27
2022-11-29T18:40:23.665Z,19.63
2022-11-29T18:42:26.612Z,20.80
2022-11-29T18:44:30.324Z,20.73
2022-11-29T18:46:35.881Z,20.43
2022-11-29T18:48:39.062Z,21.57
2022-11-29T18:50:42.016Z,20.30
2022-11-29T18:52:44.943Z,21.57
2022-11-29T18:54:49.670Z,20.10
2022-11-29T18:56:52.802Z,21.07
2022-11-29T18:58:58.677Z,19.57
2022-11-29T19:01:06.255Z,21.70
2022-11-29T19:03:09.549Z,20.80
2022-11-29T19:05:12.439Z,19.37
2022-11-29T19:07:15.403Z,21.93
2022-11-29T19:09:20.898Z,21.53
2022-11-29T19:11:26.729Z,22.63
2022-11-29T19:13:29.801Z,21.10
2022-11-29T19:15:32.811Z,20.83
2022-11-29T19:17:40.167Z,21.40
2022-11-29T19:19:46.264Z,22.63
2022-11-29T19:21:49.411Z,21.23
2022-11-29T19:23:53.259Z,22.77
2022-11-29T19:25:56.274Z,20.90
2022-11-29T19:28:00.586Z,21.10
2022-11-29T19:30:03.584Z,22.27
2022-11-29T19:32:08.590Z,22.20
2022-11-29T19:34:12.136Z,22.23
2022-11-29T19:36:16.552Z,22.47
2022-11-29T19:38:19.514Z,23.93
2022-11-29T19:40:22.935Z,23.67
2022-11-29T19:42:26.070Z,21.77
2022-11-29T19:44:35.903Z,21.77
2022-11-29T19:46:51.575Z,22.63
2022-11-29T19:48:55.539Z,22.70
2022-11-29T19:51:01.000Z,20.37
2022-11-29T19:53:04.357Z,20.07
2022-11-29T19:55:08.009Z,19.90
2022-11-29T19:57:11.082Z,18.93
2022-11-29T19:59:14.057Z,20.03
2022-11-29T20:01:20.545Z,18.73
2022-11-29T20:03:23.590Z,19.10
2022-11-29T20:05:27.269Z,21.53
2022-11-29T20:07:31.224Z,21.17
2022-11-29T20:09:34.757Z,21.47
2022-11-29T20:11:37.758Z,20.03
2022-11-29T20:13:42.053Z,20.80
2022-11-29T20:15:45.074Z,19.67
2022-11-29T20:17:49.643Z,21.17
2022-11-29T20:19:53.583Z,23.57
2022-11-29T20:21:56.638Z,22.17
2022-11-29T20:24:01.223Z,21.80
2022-11-29T20:26:05.745Z,23.87
2022-11-29T20:28:08.899Z,22.07
2022-11-29T20:30:13.189Z,22.83
2022-11-29T20:32:16.855Z,24.10
2022-11-29T20:34:22.029Z,24.70
2022-11-29T20:36:37.617Z,25.13
2022-11-29T20:38:45.038Z,24.67
2022-11-29T20:41:02.525Z,23.77
2022-11-29T20:43:13.618Z,26.83
2022-11-29T20:45:18.117Z,27.27
2022-11-29T20:47:23.069Z,24.40
2022-11-29T20:49:28.955Z,24.13
2022-11-29T20:51:36.592Z,28.77
2022-11-29T20:53:40.779Z,27.60
2022-11-29T20:55:48.065Z,25.53
2022-11-29T20:57:51.974Z,28.77
2022-11-29T20:59:55.031Z,27.23
2022-11-29T21:02:01.386Z,26.70
2022-11-29T21:04:04.380Z,29.30
2022-11-29T21:06:09.495Z,27.50
2022-11-29T21:08:12.464Z,30.17
2022-11-29T21:10:16.731Z,27.80
2022-11-29T21:12:19.976Z,29.00
2022-11-29T21:14:23.725Z,27.50
2022-11-29T21:16:29.330Z,27.33
2022-11-29T21:18:33.829Z,27.60
2022-11-29T21:20:37.300Z,28.20
2022-11-29T21:22:49.488Z,27.13
2022-11-29T21:24:57.308Z,24.90
2022-11-29T21:27:01.190Z,27.23
2022-11-29T21:29:15.246Z,27.73
2022-11-29T21:31:19.118Z,27.40
2022-11-29T21:33:22.538Z,26.27
2022-11-29T21:35:26.201Z,25.57
2022-11-29T21:37:31.202Z,27.40
2022-11-29T21:39:35.844Z,27.83
2022-11-29T21:41:39.251Z,26.23
2022-11-29T21:44:05.562Z,27.57
2022-11-29T21:46:07.969Z,27.73
2022-11-29T21:48:31.113Z,26.70
2022-11-29T21:50:34.049Z,28.03
2022-11-29T21:52:37.103Z,28.77
2022-11-29T21:54:41.843Z,27.93
2022-11-29T21:56:44.989Z,28.07
2022-11-29T21:58:48.181Z,25.87
2022-11-29T22:00:53.325Z,26.73
2022-11-29T22:02:57.397Z,27.70
2022-11-29T22:05:00.350Z,30.77
2022-11-29T22:07:03.368Z,26.73
2022-11-29T22:09:07.644Z,26.90
2022-11-29T22:11:13.580Z,26.97
2022-11-29T22:13:16.597Z,27.23
2022-11-29T22:15:24.525Z,29.33
2022-11-29T22:17:29.080Z,27.03
2022-11-29T22:19:33.694Z,28.07
2022-11-29T22:21:36.798Z,26.60
2022-11-29T22:23:39.946Z,26.50
2022-11-29T22:25:42.767Z,25.53
2022-11-29T22:27:46.988Z,27.23
2022-11-29T22:29:50.154Z,28.00
2022-11-29T22:31:54.824Z,27.77
2022-11-29T22:33:59.512Z,26.67
2022-11-29T22:36:06.402Z,25.23
2022-11-29T22:38:09.454Z,28.87
2022-11-29T22:40:13.777Z,30.10
2022-11-29T22:42:16.815Z,29.57
2022-11-29T22:44:21.033Z,27.83
2022-11-29T22:46:25.330Z,28.43
2022-11-29T22:48:32.045Z,28.33
2022-11-29T22:50:38.492Z,27.20
2022-11-29T22:52:41.334Z,28.10
2022-11-29T22:54:46.927Z,27.67
2022-11-29T22:56:50.337Z,26.47
2022-11-29T22:58:53.427Z,28.37
2022-11-29T23:01:04.642Z,30.83
2022-11-29T23:03:07.648Z,31.53
2022-11-29T23:05:10.822Z,29.30
2022-11-29T23:07:13.934Z,30.47
2022-11-29T23:09:21.023Z,32.70
2022-11-29T23:11:26.363Z,30.10
2022-11-29T23:13:29.234Z,31.37
2022-11-29T23:15:32.087Z,29.97
2022-11-29T23:17:37.984Z,34.80
2022-11-29T23:19:41.496Z,30.40
2022-11-29T23:21:46.591Z,31.80
2022-11-29T23:23:55.784Z,31.03
2022-11-29T23:25:59.718Z,32.10
2022-11-29T23:28:02.947Z,32.57
2022-11-29T23:30:07.475Z,31.43
2022-11-29T23:32:10.393Z,31.67
2022-11-29T23:34:15.019Z,29.50
2022-11-29T23:36:19.130Z,31.30
2022-11-29T23:38:23.650Z,32.20
2022-11-29T23:40:26.562Z,33.50
2022-11-29T23:42:29.770Z,32.77
2022-11-29T23:44:32.711Z,34.20
2022-11-29T23:46:36.162Z,34.20
2022-11-29T23:48:39.119Z,35.60
2022-11-29T23:50:43.698Z,35.37
2022-11-29T23:52:46.530Z,35.17
2022-11-29T23:54:50.131Z,36.27
2022-11-29T23:56:53.029Z,36.20
2022-11-29T23:58:55.983Z,35.77
